sensor_id;sensor_type;location;lat;lon;timestamp;temperature;humidity
68248;SHT30;55064;49.636;12.164;2023-07-20T00:02:12;18.19;74.92
68248;SHT30;55064;49.636;12.164;2023-07-20T00:04:37;18.19;74.38
68248;SHT30;55064;49.636;12.164;2023-07-20T00:07:03;18.26;74.80
68248;SHT30;55064;49.636;12.164;2023-07-20T00:09:29;18.30;74.82
68248;SHT30;55064;49.636;12.164;2023-07-20T00:11:54;18.29;74.91
68248;SHT30;55064;49.636;12.164;2023-07-20T00:14:20;18.25;75.13
68248;SHT30;55064;49.636;12.164;2023-07-20T00:16:46;18.19;75.59
68248;SHT30;55064;49.636;12.164;2023-07-20T00:19:21;18.25;74.64
68248;SHT30;55064;49.636;12.164;2023-07-20T00:21:48;18.30;74.77
68248;SHT30;55064;49.636;12.164;2023-07-20T00:24:13;18.35;75.08
68248;SHT30;55064;49.636;12.164;2023-07-20T00:26:38;18.33;75.20
68248;SHT30;55064;49.636;12.164;2023-07-20T00:29:05;18.24;75.58
68248;SHT30;55064;49.636;12.164;2023-07-20T00:31:30;18.22;75.97
68248;SHT30;55064;49.636;12.164;2023-07-20T00:34:01;18.06;75.44
68248;SHT30;55064;49.636;12.164;2023-07-20T00:36:26;17.88;77.13
68248;SHT30;55064;49.636;12.164;2023-07-20T00:38:51;18.02;76.59
68248;SHT30;55064;49.636;12.164;2023-07-20T00:41:17;18.13;75.70
68248;SHT30;55064;49.636;12.164;2023-07-20T00:43:42;18.16;76.32
68248;SHT30;55064;49.636;12.164;2023-07-20T00:46:09;18.18;76.17
68248;SHT30;55064;49.636;12.164;2023-07-20T00:48:35;18.08;76.57
68248;SHT30;55064;49.636;12.164;2023-07-20T00:51:01;18.12;76.38
68248;SHT30;55064;49.636;12.164;2023-07-20T00:53:28;18.08;76.87
68248;SHT30;55064;49.636;12.164;2023-07-20T00:55:53;18.04;77.15
68248;SHT30;55064;49.636;12.164;2023-07-20T00:58:19;17.92;77.56
68248;SHT30;55064;49.636;12.164;2023-07-20T01:00:45;17.74;78.81
68248;SHT30;55064;49.636;12.164;2023-07-20T01:03:10;17.63;79.15
68248;SHT30;55064;49.636;12.164;2023-07-20T01:08:17;17.43;80.18
68248;SHT30;55064;49.636;12.164;2023-07-20T01:10:57;17.50;79.91
68248;SHT30;55064;49.636;12.164;2023-07-20T01:13:25;17.50;79.95
68248;SHT30;55064;49.636;12.164;2023-07-20T01:15:57;17.54;79.73
68248;SHT30;55064;49.636;12.164;2023-07-20T01:18:24;17.53;79.71
68248;SHT30;55064;49.636;12.164;2023-07-20T01:20:50;17.64;79.26
68248;SHT30;55064;49.636;12.164;2023-07-20T01:26:27;17.74;78.94
68248;SHT30;55064;49.636;12.164;2023-07-20T01:29:31;17.75;78.99
68248;SHT30;55064;49.636;12.164;2023-07-20T01:32:02;17.74;78.92
68248;SHT30;55064;49.636;12.164;2023-07-20T01:34:30;17.73;78.83
68248;SHT30;55064;49.636;12.164;2023-07-20T01:37:03;17.63;79.41
68248;SHT30;55064;49.636;12.164;2023-07-20T01:39:33;17.64;79.35
68248;SHT30;55064;49.636;12.164;2023-07-20T01:42:00;17.63;79.16
68248;SHT30;55064;49.636;12.164;2023-07-20T01:44:25;17.64;79.43
68248;SHT30;55064;49.636;12.164;2023-07-20T01:46:53;17.77;78.31
68248;SHT30;55064;49.636;12.164;2023-07-20T01:49:19;17.75;79.34
68248;SHT30;55064;49.636;12.164;2023-07-20T01:51:44;17.73;78.71
68248;SHT30;55064;49.636;12.164;2023-07-20T01:54:12;17.69;78.93
68248;SHT30;55064;49.636;12.164;2023-07-20T01:56:42;17.64;78.71
68248;SHT30;55064;49.636;12.164;2023-07-20T01:59:09;17.64;78.97
68248;SHT30;55064;49.636;12.164;2023-07-20T02:01:35;17.61;79.38
68248;SHT30;55064;49.636;12.164;2023-07-20T02:04:03;17.57;79.04
68248;SHT30;55064;49.636;12.164;2023-07-20T02:06:28;17.50;80.01
68248;SHT30;55064;49.636;12.164;2023-07-20T02:08:54;17.44;80.17
68248;SHT30;55064;49.636;12.164;2023-07-20T02:11:19;17.37;79.95
68248;SHT30;55064;49.636;12.164;2023-07-20T02:13:44;17.29;80.43
68248;SHT30;55064;49.636;12.164;2023-07-20T02:16:09;17.30;79.96
68248;SHT30;55064;49.636;12.164;2023-07-20T02:18:37;17.34;80.39
68248;SHT30;55064;49.636;12.164;2023-07-20T02:21:07;17.43;79.54
68248;SHT30;55064;49.636;12.164;2023-07-20T02:23:32;17.54;79.44
68248;SHT30;55064;49.636;12.164;2023-07-20T02:25:57;17.53;79.47
68248;SHT30;55064;49.636;12.164;2023-07-20T02:28:23;17.57;79.33
68248;SHT30;55064;49.636;12.164;2023-07-20T02:30:48;17.55;79.23
68248;SHT30;55064;49.636;12.164;2023-07-20T02:33:17;17.39;79.97
68248;SHT30;55064;49.636;12.164;2023-07-20T02:35:42;17.22;80.99
68248;SHT30;55064;49.636;12.164;2023-07-20T02:38:07;17.16;81.06
68248;SHT30;55064;49.636;12.164;2023-07-20T02:40:35;17.30;80.58
68248;SHT30;55064;49.636;12.164;2023-07-20T02:43:03;17.30;81.08
68248;SHT30;55064;49.636;12.164;2023-07-20T02:45:29;17.33;80.71
68248;SHT30;55064;49.636;12.164;2023-07-20T02:47:59;17.27;81.32
68248;SHT30;55064;49.636;12.164;2023-07-20T02:50:26;17.29;81.21
68248;SHT30;55064;49.636;12.164;2023-07-20T02:52:56;17.20;81.21
68248;SHT30;55064;49.636;12.164;2023-07-20T02:55:21;17.23;80.86
68248;SHT30;55064;49.636;12.164;2023-07-20T02:57:49;17.23;80.71
68248;SHT30;55064;49.636;12.164;2023-07-20T03:00:15;17.15;81.81
68248;SHT30;55064;49.636;12.164;2023-07-20T03:02:43;16.95;82.72
68248;SHT30;55064;49.636;12.164;2023-07-20T03:05:14;16.88;83.09
68248;SHT30;55064;49.636;12.164;2023-07-20T03:07:39;16.85;83.06
68248;SHT30;55064;49.636;12.164;2023-07-20T03:10:05;16.88;82.90
68248;SHT30;55064;49.636;12.164;2023-07-20T03:12:34;16.92;82.60
68248;SHT30;55064;49.636;12.164;2023-07-20T03:15:02;16.96;82.31
68248;SHT30;55064;49.636;12.164;2023-07-20T03:17:30;17.01;82.01
68248;SHT30;55064;49.636;12.164;2023-07-20T03:19:57;17.06;82.32
68248;SHT30;55064;49.636;12.164;2023-07-20T03:22:24;17.08;82.21
68248;SHT30;55064;49.636;12.164;2023-07-20T03:24:50;17.08;82.13
68248;SHT30;55064;49.636;12.164;2023-07-20T03:27:17;17.01;82.29
68248;SHT30;55064;49.636;12.164;2023-07-20T03:29:42;16.98;82.91
68248;SHT30;55064;49.636;12.164;2023-07-20T03:32:09;16.78;83.73
68248;SHT30;55064;49.636;12.164;2023-07-20T03:34:35;16.81;83.54
68248;SHT30;55064;49.636;12.164;2023-07-20T03:37:00;16.84;83.87
68248;SHT30;55064;49.636;12.164;2023-07-20T03:39:26;16.98;83.10
68248;SHT30;55064;49.636;12.164;2023-07-20T03:41:51;16.87;83.82
68248;SHT30;55064;49.636;12.164;2023-07-20T03:44:17;16.84;83.63
68248;SHT30;55064;49.636;12.164;2023-07-20T03:46:43;16.78;84.11
68248;SHT30;55064;49.636;12.164;2023-07-20T03:49:08;16.81;84.13
68248;SHT30;55064;49.636;12.164;2023-07-20T03:51:35;16.85;83.34
68248;SHT30;55064;49.636;12.164;2023-07-20T03:54:02;16.87;84.11
68248;SHT30;55064;49.636;12.164;2023-07-20T03:56:27;16.84;84.11
68248;SHT30;55064;49.636;12.164;2023-07-20T03:58:59;16.72;84.94
68248;SHT30;55064;49.636;12.164;2023-07-20T04:01:25;16.65;84.97
68248;SHT30;55064;49.636;12.164;2023-07-20T04:03:51;16.72;84.88
68248;SHT30;55064;49.636;12.164;2023-07-20T04:06:16;16.84;84.10
68248;SHT30;55064;49.636;12.164;2023-07-20T04:08:42;16.82;84.34
68248;SHT30;55064;49.636;12.164;2023-07-20T04:11:09;16.85;84.37
68248;SHT30;55064;49.636;12.164;2023-07-20T04:13:35;16.99;83.40
68248;SHT30;55064;49.636;12.164;2023-07-20T04:16:00;17.06;83.52
68248;SHT30;55064;49.636;12.164;2023-07-20T04:18:25;17.04;83.69
68248;SHT30;55064;49.636;12.164;2023-07-20T04:20:53;17.11;82.10
68248;SHT30;55064;49.636;12.164;2023-07-20T04:23:19;17.18;82.60
68248;SHT30;55064;49.636;12.164;2023-07-20T04:25:46;17.19;82.63
68248;SHT30;55064;49.636;12.164;2023-07-20T04:28:12;17.16;82.47
68248;SHT30;55064;49.636;12.164;2023-07-20T04:30:41;17.12;83.35
68248;SHT30;55064;49.636;12.164;2023-07-20T04:33:07;17.01;83.75
68248;SHT30;55064;49.636;12.164;2023-07-20T04:38:14;17.05;84.13
68248;SHT30;55064;49.636;12.164;2023-07-20T04:40:47;17.14;83.07
68248;SHT30;55064;49.636;12.164;2023-07-20T04:43:14;17.20;83.25
68248;SHT30;55064;49.636;12.164;2023-07-20T04:45:41;17.16;83.94
68248;SHT30;55064;49.636;12.164;2023-07-20T04:48:12;17.22;83.21
68248;SHT30;55064;49.636;12.164;2023-07-20T04:50:43;17.11;83.79
68248;SHT30;55064;49.636;12.164;2023-07-20T04:53:10;17.11;83.59
68248;SHT30;55064;49.636;12.164;2023-07-20T04:55:39;17.19;83.77
68248;SHT30;55064;49.636;12.164;2023-07-20T05:01:33;17.23;83.59
68248;SHT30;55064;49.636;12.164;2023-07-20T05:03:59;17.42;83.01
68248;SHT30;55064;49.636;12.164;2023-07-20T05:06:26;17.43;82.85
68248;SHT30;55064;49.636;12.164;2023-07-20T05:08:51;17.43;82.79
68248;SHT30;55064;49.636;12.164;2023-07-20T05:11:20;17.46;82.89
68248;SHT30;55064;49.636;12.164;2023-07-20T05:13:46;17.55;83.09
68248;SHT30;55064;49.636;12.164;2023-07-20T05:19:36;17.60;83.11
68248;SHT30;55064;49.636;12.164;2023-07-20T05:22:20;17.71;82.68
68248;SHT30;55064;49.636;12.164;2023-07-20T05:24:51;17.84;81.72
68248;SHT30;55064;49.636;12.164;2023-07-20T05:27:44;17.77;83.23
68248;SHT30;55064;49.636;12.164;2023-07-20T05:33:33;17.71;83.37
68248;SHT30;55064;49.636;12.164;2023-07-20T05:36:00;17.94;82.22
68248;SHT30;55064;49.636;12.164;2023-07-20T05:38:26;17.98;82.13
68248;SHT30;55064;49.636;12.164;2023-07-20T05:40:51;18.15;80.97
68248;SHT30;55064;49.636;12.164;2023-07-20T05:43:16;18.13;81.14
68248;SHT30;55064;49.636;12.164;2023-07-20T05:45:45;18.33;80.36
68248;SHT30;55064;49.636;12.164;2023-07-20T05:48:12;18.25;79.99
68248;SHT30;55064;49.636;12.164;2023-07-20T05:50:42;18.22;79.28
68248;SHT30;55064;49.636;12.164;2023-07-20T05:53:11;18.30;78.75
68248;SHT30;55064;49.636;12.164;2023-07-20T05:55:36;18.29;77.77
68248;SHT30;55064;49.636;12.164;2023-07-20T05:58:02;18.30;77.75
68248;SHT30;55064;49.636;12.164;2023-07-20T06:00:29;18.42;76.80
68248;SHT30;55064;49.636;12.164;2023-07-20T06:02:57;18.29;76.08
68248;SHT30;55064;49.636;12.164;2023-07-20T06:05:22;18.39;75.83
68248;SHT30;55064;49.636;12.164;2023-07-20T06:07:49;18.49;75.05
68248;SHT30;55064;49.636;12.164;2023-07-20T06:10:15;18.50;75.56
68248;SHT30;55064;49.636;12.164;2023-07-20T06:12:43;18.60;75.83
68248;SHT30;55064;49.636;12.164;2023-07-20T06:15:30;18.70;75.10
68248;SHT30;55064;49.636;12.164;2023-07-20T06:18:02;18.64;74.94
68248;SHT30;55064;49.636;12.164;2023-07-20T06:20:29;18.71;75.12
68248;SHT30;55064;49.636;12.164;2023-07-20T06:22:54;18.71;75.03
68248;SHT30;55064;49.636;12.164;2023-07-20T06:25:22;18.61;74.20
68248;SHT30;55064;49.636;12.164;2023-07-20T06:27:49;18.80;73.80
68248;SHT30;55064;49.636;12.164;2023-07-20T06:30:15;18.88;73.06
68248;SHT30;55064;49.636;12.164;2023-07-20T06:32:40;18.78;72.94
68248;SHT30;55064;49.636;12.164;2023-07-20T06:35:06;18.83;72.83
68248;SHT30;55064;49.636;12.164;2023-07-20T06:37:32;18.77;72.64
68248;SHT30;55064;49.636;12.164;2023-07-20T06:39:58;18.91;72.55
68248;SHT30;55064;49.636;12.164;2023-07-20T06:42:23;18.97;71.23
68248;SHT30;55064;49.636;12.164;2023-07-20T06:44:48;19.09;70.97
68248;SHT30;55064;49.636;12.164;2023-07-20T06:47:14;19.11;69.93
68248;SHT30;55064;49.636;12.164;2023-07-20T06:49:41;19.01;70.61
68248;SHT30;55064;49.636;12.164;2023-07-20T06:52:07;19.12;69.28
68248;SHT30;55064;49.636;12.164;2023-07-20T06:54:32;19.20;68.84
68248;SHT30;55064;49.636;12.164;2023-07-20T06:56:58;19.22;67.68
68248;SHT30;55064;49.636;12.164;2023-07-20T06:59:23;19.26;67.32
68248;SHT30;55064;49.636;12.164;2023-07-20T07:01:54;19.32;67.73
68248;SHT30;55064;49.636;12.164;2023-07-20T07:04:19;19.37;67.88
68248;SHT30;55064;49.636;12.164;2023-07-20T07:06:45;19.32;67.04
68248;SHT30;55064;49.636;12.164;2023-07-20T07:09:10;19.56;66.35
68248;SHT30;55064;49.636;12.164;2023-07-20T07:11:38;19.73;64.84
68248;SHT30;55064;49.636;12.164;2023-07-20T07:14:03;19.78;65.00
68248;SHT30;55064;49.636;12.164;2023-07-20T07:16:28;19.83;63.81
68248;SHT30;55064;49.636;12.164;2023-07-20T07:18:54;19.67;64.30
68248;SHT30;55064;49.636;12.164;2023-07-20T07:21:19;19.73;64.44
68248;SHT30;55064;49.636;12.164;2023-07-20T07:23:48;19.87;64.26
68248;SHT30;55064;49.636;12.164;2023-07-20T07:26:14;19.87;63.54
68248;SHT30;55064;49.636;12.164;2023-07-20T07:28:40;19.94;63.88
68248;SHT30;55064;49.636;12.164;2023-07-20T07:31:07;20.00;62.46
68248;SHT30;55064;49.636;12.164;2023-07-20T07:33:33;20.08;62.56
68248;SHT30;55064;49.636;12.164;2023-07-20T07:35:59;20.18;61.76
68248;SHT30;55064;49.636;12.164;2023-07-20T07:38:25;20.22;60.40
68248;SHT30;55064;49.636;12.164;2023-07-20T07:40:53;20.24;61.01
68248;SHT30;55064;49.636;12.164;2023-07-20T07:43:19;20.25;61.44
68248;SHT30;55064;49.636;12.164;2023-07-20T07:45:54;20.36;61.52
68248;SHT30;55064;49.636;12.164;2023-07-20T07:48:19;20.67;61.46
68248;SHT30;55064;49.636;12.164;2023-07-20T07:50:47;20.83;59.66
68248;SHT30;55064;49.636;12.164;2023-07-20T07:53:13;20.80;59.46
68248;SHT30;55064;49.636;12.164;2023-07-20T07:55:38;20.74;59.79
68248;SHT30;55064;49.636;12.164;2023-07-20T07:58:06;20.74;59.46
68248;SHT30;55064;49.636;12.164;2023-07-20T08:00:33;20.81;59.68
68248;SHT30;55064;49.636;12.164;2023-07-20T08:03:00;21.05;58.60
68248;SHT30;55064;49.636;12.164;2023-07-20T08:05:30;21.27;57.78
68248;SHT30;55064;49.636;12.164;2023-07-20T08:07:55;21.29;57.92
68248;SHT30;55064;49.636;12.164;2023-07-20T08:10:22;21.41;57.86
68248;SHT30;55064;49.636;12.164;2023-07-20T08:12:47;21.49;55.50
68248;SHT30;55064;49.636;12.164;2023-07-20T08:15:13;21.72;54.46
68248;SHT30;55064;49.636;12.164;2023-07-20T08:17:42;21.97;55.52
68248;SHT30;55064;49.636;12.164;2023-07-20T08:20:10;22.04;54.90
68248;SHT30;55064;49.636;12.164;2023-07-20T08:22:42;22.11;53.77
68248;SHT30;55064;49.636;12.164;2023-07-20T08:25:08;22.18;52.85
68248;SHT30;55064;49.636;12.164;2023-07-20T08:27:34;22.27;52.08
68248;SHT30;55064;49.636;12.164;2023-07-20T08:30:01;21.82;53.51
68248;SHT30;55064;49.636;12.164;2023-07-20T08:32:26;22.14;53.05
68248;SHT30;55064;49.636;12.164;2023-07-20T08:34:53;22.12;52.94
68248;SHT30;55064;49.636;12.164;2023-07-20T08:37:22;22.44;52.09
68248;SHT30;55064;49.636;12.164;2023-07-20T08:39:47;22.66;50.33
68248;SHT30;55064;49.636;12.164;2023-07-20T08:42:14;22.77;50.56
68248;SHT30;55064;49.636;12.164;2023-07-20T08:44:44;23.18;50.98
68248;SHT30;55064;49.636;12.164;2023-07-20T08:47:11;22.51;51.30
68248;SHT30;55064;49.636;12.164;2023-07-20T08:49:39;22.52;51.60
68248;SHT30;55064;49.636;12.164;2023-07-20T08:52:05;22.79;50.75
68248;SHT30;55064;49.636;12.164;2023-07-20T08:54:31;22.97;49.99
68248;SHT30;55064;49.636;12.164;2023-07-20T08:57:04;23.13;48.63
68248;SHT30;55064;49.636;12.164;2023-07-20T08:59:34;23.07;49.04
68248;SHT30;55064;49.636;12.164;2023-07-20T09:02:02;23.20;48.64
68248;SHT30;55064;49.636;12.164;2023-07-20T09:04:27;23.14;49.32
68248;SHT30;55064;49.636;12.164;2023-07-20T09:06:53;23.42;48.70
68248;SHT30;55064;49.636;12.164;2023-07-20T09:09:20;22.56;49.78
68248;SHT30;55064;49.636;12.164;2023-07-20T09:11:48;22.82;48.90
68248;SHT30;55064;49.636;12.164;2023-07-20T09:14:14;23.31;48.11
68248;SHT30;55064;49.636;12.164;2023-07-20T09:16:54;23.28;48.55
68248;SHT30;55064;49.636;12.164;2023-07-20T09:19:22;22.82;49.18
68248;SHT30;55064;49.636;12.164;2023-07-20T09:21:49;22.37;50.38
68248;SHT30;55064;49.636;12.164;2023-07-20T09:24:18;22.15;51.13
68248;SHT30;55064;49.636;12.164;2023-07-20T09:26:48;22.35;50.63
68248;SHT30;55064;49.636;12.164;2023-07-20T09:29:18;22.59;49.27
68248;SHT30;55064;49.636;12.164;2023-07-20T09:31:58;23.18;48.69
68248;SHT30;55064;49.636;12.164;2023-07-20T09:34:24;23.87;47.67
68248;SHT30;55064;49.636;12.164;2023-07-20T09:36:50;24.40;47.12
68248;SHT30;55064;49.636;12.164;2023-07-20T09:39:18;24.50;45.64
68248;SHT30;55064;49.636;12.164;2023-07-20T09:41:44;23.73;46.06
68248;SHT30;55064;49.636;12.164;2023-07-20T09:44:14;23.73;46.01
68248;SHT30;55064;49.636;12.164;2023-07-20T09:46:46;23.69;46.64
68248;SHT30;55064;49.636;12.164;2023-07-20T09:49:13;23.30;47.73
68248;SHT30;55064;49.636;12.164;2023-07-20T09:51:44;23.00;49.26
68248;SHT30;55064;49.636;12.164;2023-07-20T09:54:13;23.58;49.00
68248;SHT30;55064;49.636;12.164;2023-07-20T09:56:39;24.30;47.69
68248;SHT30;55064;49.636;12.164;2023-07-20T09:59:05;24.62;46.75
68248;SHT30;55064;49.636;12.164;2023-07-20T10:01:36;24.90;45.01
68248;SHT30;55064;49.636;12.164;2023-07-20T10:04:08;24.44;44.50
68248;SHT30;55064;49.636;12.164;2023-07-20T10:06:35;24.14;44.50
68248;SHT30;55064;49.636;12.164;2023-07-20T10:09:05;23.97;44.89
68248;SHT30;55064;49.636;12.164;2023-07-20T10:11:35;23.76;45.74
68248;SHT30;55064;49.636;12.164;2023-07-20T10:14:03;23.68;46.30
68248;SHT30;55064;49.636;12.164;2023-07-20T10:16:35;23.44;46.84
68248;SHT30;55064;49.636;12.164;2023-07-20T10:19:18;23.14;47.10
68248;SHT30;55064;49.636;12.164;2023-07-20T10:21:48;23.14;48.43
68248;SHT30;55064;49.636;12.164;2023-07-20T10:24:16;22.89;48.63
68248;SHT30;55064;49.636;12.164;2023-07-20T10:26:42;22.72;48.40
68248;SHT30;55064;49.636;12.164;2023-07-20T10:29:08;22.92;47.88
68248;SHT30;55064;49.636;12.164;2023-07-20T10:31:35;23.00;48.02
68248;SHT30;55064;49.636;12.164;2023-07-20T10:34:01;22.99;47.72
68248;SHT30;55064;49.636;12.164;2023-07-20T10:36:29;23.03;47.57
68248;SHT30;55064;49.636;12.164;2023-07-20T10:38:58;23.61;47.12
68248;SHT30;55064;49.636;12.164;2023-07-20T10:41:34;24.18;46.19
68248;SHT30;55064;49.636;12.164;2023-07-20T10:44:02;24.61;44.57
68248;SHT30;55064;49.636;12.164;2023-07-20T10:46:50;25.12;43.78
68248;SHT30;55064;49.636;12.164;2023-07-20T10:49:15;25.20;43.10
68248;SHT30;55064;49.636;12.164;2023-07-20T10:51:45;23.95;43.45
68248;SHT30;55064;49.636;12.164;2023-07-20T10:56:41;25.10;43.78
68248;SHT30;55064;49.636;12.164;2023-07-20T10:59:39;25.68;42.98
68248;SHT30;55064;49.636;12.164;2023-07-20T11:02:07;25.33;43.34
68248;SHT30;55064;49.636;12.164;2023-07-20T11:04:42;24.52;43.74
68248;SHT30;55064;49.636;12.164;2023-07-20T11:07:15;24.33;44.15
68248;SHT30;55064;49.636;12.164;2023-07-20T11:09:41;24.20;44.72
68248;SHT30;55064;49.636;12.164;2023-07-20T11:14:43;23.73;45.12
68248;SHT30;55064;49.636;12.164;2023-07-20T11:17:15;23.47;46.08
68248;SHT30;55064;49.636;12.164;2023-07-20T11:19:41;23.69;45.48
68248;SHT30;55064;49.636;12.164;2023-07-20T11:22:07;23.58;45.27
68248;SHT30;55064;49.636;12.164;2023-07-20T11:24:34;23.57;45.73
68248;SHT30;55064;49.636;12.164;2023-07-20T11:27:00;23.69;45.32
68248;SHT30;55064;49.636;12.164;2023-07-20T11:29:26;23.44;45.01
68248;SHT30;55064;49.636;12.164;2023-07-20T11:31:55;23.58;45.31
68248;SHT30;55064;49.636;12.164;2023-07-20T11:34:26;23.47;45.69
68248;SHT30;55064;49.636;12.164;2023-07-20T11:36:52;23.47;45.79
68248;SHT30;55064;49.636;12.164;2023-07-20T11:39:19;23.54;45.76
68248;SHT30;55064;49.636;12.164;2023-07-20T11:41:49;23.30;46.27
68248;SHT30;55064;49.636;12.164;2023-07-20T11:44:21;23.21;46.23
68248;SHT30;55064;49.636;12.164;2023-07-20T11:46:59;23.86;45.10
68248;SHT30;55064;49.636;12.164;2023-07-20T11:49:26;24.41;43.63
68248;SHT30;55064;49.636;12.164;2023-07-20T11:51:52;24.64;42.48
68248;SHT30;55064;49.636;12.164;2023-07-20T11:54:17;24.85;41.42
68248;SHT30;55064;49.636;12.164;2023-07-20T11:56:45;25.34;41.08
68248;SHT30;55064;49.636;12.164;2023-07-20T11:59:12;25.64;40.51
68248;SHT30;55064;49.636;12.164;2023-07-20T12:01:40;25.82;40.87
68248;SHT30;55064;49.636;12.164;2023-07-20T12:04:06;25.45;39.68
68248;SHT30;55064;49.636;12.164;2023-07-20T12:06:33;25.27;40.52
68248;SHT30;55064;49.636;12.164;2023-07-20T12:08:59;25.61;40.73
68248;SHT30;55064;49.636;12.164;2023-07-20T12:11:31;26.09;39.87
68248;SHT30;55064;49.636;12.164;2023-07-20T12:13:58;26.20;37.56
68248;SHT30;55064;49.636;12.164;2023-07-20T12:16:27;26.62;36.76
68248;SHT30;55064;49.636;12.164;2023-07-20T12:19:02;27.22;37.17
68248;SHT30;55064;49.636;12.164;2023-07-20T12:21:30;27.22;37.03
68248;SHT30;55064;49.636;12.164;2023-07-20T12:23:57;27.06;37.31
68248;SHT30;55064;49.636;12.164;2023-07-20T12:26:23;26.77;36.94
68248;SHT30;55064;49.636;12.164;2023-07-20T12:28:52;27.16;37.02
68248;SHT30;55064;49.636;12.164;2023-07-20T12:31:18;27.37;37.15
68248;SHT30;55064;49.636;12.164;2023-07-20T12:33:46;27.17;35.65
68248;SHT30;55064;49.636;12.164;2023-07-20T12:36:13;26.51;35.85
68248;SHT30;55064;49.636;12.164;2023-07-20T12:38:38;25.82;35.98
68248;SHT30;55064;49.636;12.164;2023-07-20T12:41:07;25.72;37.38
68248;SHT30;55064;49.636;12.164;2023-07-20T12:43:32;25.81;38.31
68248;SHT30;55064;49.636;12.164;2023-07-20T12:45:58;25.92;38.48
68248;SHT30;55064;49.636;12.164;2023-07-20T12:48:27;26.27;37.90
68248;SHT30;55064;49.636;12.164;2023-07-20T12:50:55;26.19;38.15
68248;SHT30;55064;49.636;12.164;2023-07-20T12:53:20;25.93;38.68
68248;SHT30;55064;49.636;12.164;2023-07-20T12:55:46;25.90;38.23
68248;SHT30;55064;49.636;12.164;2023-07-20T12:58:14;25.84;37.33
68248;SHT30;55064;49.636;12.164;2023-07-20T13:00:40;26.17;37.26
68248;SHT30;55064;49.636;12.164;2023-07-20T13:03:06;26.67;36.21
68248;SHT30;55064;49.636;12.164;2023-07-20T13:05:34;26.32;36.85
68248;SHT30;55064;49.636;12.164;2023-07-20T13:08:00;26.47;37.49
68248;SHT30;55064;49.636;12.164;2023-07-20T13:10:25;26.84;36.89
68248;SHT30;55064;49.636;12.164;2023-07-20T13:12:51;26.77;36.46
68248;SHT30;55064;49.636;12.164;2023-07-20T13:15:17;26.85;36.15
68248;SHT30;55064;49.636;12.164;2023-07-20T13:17:45;26.91;35.91
68248;SHT30;55064;49.636;12.164;2023-07-20T13:20:11;26.77;35.58
68248;SHT30;55064;49.636;12.164;2023-07-20T13:22:40;26.61;35.89
68248;SHT30;55064;49.636;12.164;2023-07-20T13:25:07;26.51;36.19
68248;SHT30;55064;49.636;12.164;2023-07-20T13:27:33;26.53;36.55
68248;SHT30;55064;49.636;12.164;2023-07-20T13:29:59;26.60;36.76
68248;SHT30;55064;49.636;12.164;2023-07-20T13:32:26;26.57;36.21
68248;SHT30;55064;49.636;12.164;2023-07-20T13:34:51;26.40;35.91
68248;SHT30;55064;49.636;12.164;2023-07-20T13:37:17;26.71;34.34
68248;SHT30;55064;49.636;12.164;2023-07-20T13:39:42;26.87;34.96
68248;SHT30;55064;49.636;12.164;2023-07-20T13:42:08;26.81;35.47
68248;SHT30;55064;49.636;12.164;2023-07-20T13:44:35;26.88;35.62
68248;SHT30;55064;49.636;12.164;2023-07-20T13:47:01;27.09;35.51
68248;SHT30;55064;49.636;12.164;2023-07-20T13:49:29;27.08;35.05
68248;SHT30;55064;49.636;12.164;2023-07-20T13:51:55;27.30;34.62
68248;SHT30;55064;49.636;12.164;2023-07-20T13:54:21;27.23;34.20
68248;SHT30;55064;49.636;12.164;2023-07-20T13:56:46;26.68;34.71
68248;SHT30;55064;49.636;12.164;2023-07-20T13:59:12;26.45;35.74
68248;SHT30;55064;49.636;12.164;2023-07-20T14:01:37;26.22;35.99
68248;SHT30;55064;49.636;12.164;2023-07-20T14:04:05;26.41;36.18
68248;SHT30;55064;49.636;12.164;2023-07-20T14:06:31;26.09;36.46
68248;SHT30;55064;49.636;12.164;2023-07-20T14:08:59;25.99;36.90
68248;SHT30;55064;49.636;12.164;2023-07-20T14:11:25;25.77;37.59
68248;SHT30;55064;49.636;12.164;2023-07-20T14:13:52;25.55;37.49
68248;SHT30;55064;49.636;12.164;2023-07-20T14:16:25;25.30;37.94
68248;SHT30;55064;49.636;12.164;2023-07-20T14:18:51;25.47;38.03
68248;SHT30;55064;49.636;12.164;2023-07-20T14:21:18;25.51;39.77
68248;SHT30;55064;49.636;12.164;2023-07-20T14:23:49;25.34;40.70
68248;SHT30;55064;49.636;12.164;2023-07-20T14:26:20;25.12;41.54
68248;SHT30;55064;49.636;12.164;2023-07-20T14:28:46;25.23;41.20
68248;SHT30;55064;49.636;12.164;2023-07-20T14:31:11;25.57;40.53
68248;SHT30;55064;49.636;12.164;2023-07-20T14:33:37;25.89;40.08
68248;SHT30;55064;49.636;12.164;2023-07-20T14:36:03;26.03;39.72
68248;SHT30;55064;49.636;12.164;2023-07-20T14:38:30;26.07;39.90
68248;SHT30;55064;49.636;12.164;2023-07-20T14:40:55;26.06;40.29
68248;SHT30;55064;49.636;12.164;2023-07-20T14:43:21;26.25;39.33
68248;SHT30;55064;49.636;12.164;2023-07-20T14:45:48;26.17;39.49
68248;SHT30;55064;49.636;12.164;2023-07-20T14:48:13;26.09;39.13
68248;SHT30;55064;49.636;12.164;2023-07-20T14:50:39;25.99;39.98
68248;SHT30;55064;49.636;12.164;2023-07-20T14:53:05;26.13;40.67
68248;SHT30;55064;49.636;12.164;2023-07-20T14:55:30;26.26;39.23
68248;SHT30;55064;49.636;12.164;2023-07-20T14:57:55;26.36;38.74
68248;SHT30;55064;49.636;12.164;2023-07-20T15:00:21;26.34;38.89
68248;SHT30;55064;49.636;12.164;2023-07-20T15:02:46;26.62;39.23
68248;SHT30;55064;49.636;12.164;2023-07-20T15:05:12;26.74;39.05
68248;SHT30;55064;49.636;12.164;2023-07-20T15:07:46;26.72;38.36
68248;SHT30;55064;49.636;12.164;2023-07-20T15:10:16;26.98;38.82
68248;SHT30;55064;49.636;12.164;2023-07-20T15:12:41;26.88;38.75
68248;SHT30;55064;49.636;12.164;2023-07-20T15:15:10;26.67;38.04
68248;SHT30;55064;49.636;12.164;2023-07-20T15:17:39;26.94;38.78
68248;SHT30;55064;49.636;12.164;2023-07-20T15:20:09;27.08;38.07
68248;SHT30;55064;49.636;12.164;2023-07-20T15:22:35;27.06;37.24
68248;SHT30;55064;49.636;12.164;2023-07-20T15:25:05;27.03;37.72
68248;SHT30;55064;49.636;12.164;2023-07-20T15:27:31;26.61;38.47
68248;SHT30;55064;49.636;12.164;2023-07-20T15:29:59;26.10;38.11
68248;SHT30;55064;49.636;12.164;2023-07-20T15:35:30;25.43;39.59
68248;SHT30;55064;49.636;12.164;2023-07-20T15:38:08;25.50;38.98
68248;SHT30;55064;49.636;12.164;2023-07-20T15:40:33;25.65;38.89
68248;SHT30;55064;49.636;12.164;2023-07-20T15:43:03;25.69;38.60
68248;SHT30;55064;49.636;12.164;2023-07-20T15:45:50;25.99;38.16